sensor_id;sensor_type;location;lat;lon;timestamp;temperature;humidity
8539;DHT22;4307;53.868;11.680;2022-11-27T00:01:16;8.10;99.90
8539;DHT22;4307;53.868;11.680;2022-11-27T00:03:43;8.10;99.90
8539;DHT22;4307;53.868;11.680;2022-11-27T00:06:13;8.20;99.90
8539;DHT22;4307;53.868;11.680;2022-11-27T00:08:40;8.20;99.90
8539;DHT22;4307;53.868;11.680;2022-11-27T00:11:11;8.20;99.90
8539;DHT22;4307;53.868;11.680;2022-11-27T00:13:39;8.20;99.90
8539;DHT22;4307;53.868;11.680;2022-11-27T00:16:06;8.20;99.90
8539;DHT22;4307;53.868;11.680;2022-11-27T00:18:33;8.30;99.90
8539;DHT22;4307;53.868;11.680;2022-11-27T00:21:02;8.30;99.90
8539;DHT22;4307;53.868;11.680;2022-11-27T00:23:31;8.30;99.90
8539;DHT22;4307;53.868;11.680;2022-11-27T00:25:57;8.30;99.90
8539;DHT22;4307;53.868;11.680;2022-11-27T00:28:24;8.30;99.90
8539;DHT22;4307;53.868;11.680;2022-11-27T00:30:51;8.30;99.90
8539;DHT22;4307;53.868;11.680;2022-11-27T00:33:17;8.30;99.90
8539;DHT22;4307;53.868;11.680;2022-11-27T00:35:44;8.30;99.90
8539;DHT22;4307;53.868;11.680;2022-11-27T00:38:11;8.30;99.90
8539;DHT22;4307;53.868;11.680;2022-11-27T00:40:39;8.30;99.90
8539;DHT22;4307;53.868;11.680;2022-11-27T00:43:05;8.30;99.90
8539;DHT22;4307;53.868;11.680;2022-11-27T00:45:32;8.30;99.90
8539;DHT22;4307;53.868;11.680;2022-11-27T00:47:59;8.30;99.90
8539;DHT22;4307;53.868;11.680;2022-11-27T00:50:25;8.30;99.90
8539;DHT22;4307;53.868;11.680;2022-11-27T00:52:56;8.30;99.90
8539;DHT22;4307;53.868;11.680;2022-11-27T00:55:22;8.20;99.90
8539;DHT22;4307;53.868;11.680;2022-11-27T00:57:50;8.30;99.90
8539;DHT22;4307;53.868;11.680;2022-11-27T01:00:17;8.20;99.90
8539;DHT22;4307;53.868;11.680;2022-11-27T01:02:44;8.20;99.90
8539;DHT22;4307;53.868;11.680;2022-11-27T01:05:11;8.20;99.90
8539;DHT22;4307;53.868;11.680;2022-11-27T01:07:38;8.20;99.90
8539;DHT22;4307;53.868;11.680;2022-11-27T01:10:06;8.20;99.90
8539;DHT22;4307;53.868;11.680;2022-11-27T01:12:32;8.20;99.90
8539;DHT22;4307;53.868;11.680;2022-11-27T01:15:00;8.20;99.90
8539;DHT22;4307;53.868;11.680;2022-11-27T01:17:27;8.20;99.90
8539;DHT22;4307;53.868;11.680;2022-11-27T01:19:54;8.10;99.90
8539;DHT22;4307;53.868;11.680;2022-11-27T01:22:21;8.10;99.90
8539;DHT22;4307;53.868;11.680;2022-11-27T01:24:48;8.10;99.90
8539;DHT22;4307;53.868;11.680;2022-11-27T01:27:14;8.10;99.90
8539;DHT22;4307;53.868;11.680;2022-11-27T01:29:41;8.10;99.90
8539;DHT22;4307;53.868;11.680;2022-11-27T01:32:09;8.10;99.90
8539;DHT22;4307;53.868;11.680;2022-11-27T01:34:36;8.10;99.90
8539;DHT22;4307;53.868;11.680;2022-11-27T01:37:02;8.10;99.90
8539;DHT22;4307;53.868;11.680;2022-11-27T01:39:29;8.00;99.90
8539;DHT22;4307;53.868;11.680;2022-11-27T01:41:56;8.00;99.90
8539;DHT22;4307;53.868;11.680;2022-11-27T01:44:52;8.10;99.90
8539;DHT22;4307;53.868;11.680;2022-11-27T01:47:32;8.00;99.90
8539;DHT22;4307;53.868;11.680;2022-11-27T01:50:06;8.00;99.90
8539;DHT22;4307;53.868;11.680;2022-11-27T01:52:37;8.10;99.90
8539;DHT22;4307;53.868;11.680;2022-11-27T01:55:06;8.00;99.90
8539;DHT22;4307;53.868;11.680;2022-11-27T01:57:38;8.00;99.90
8539;DHT22;4307;53.868;11.680;2022-11-27T02:00:07;8.00;99.90
8539;DHT22;4307;53.868;11.680;2022-11-27T02:02:36;8.10;99.90
8539;DHT22;4307;53.868;11.680;2022-11-27T02:05:03;8.00;99.90
8539;DHT22;4307;53.868;11.680;2022-11-27T02:07:30;8.00;99.90
8539;DHT22;4307;53.868;11.680;2022-11-27T02:09:56;8.00;99.90
8539;DHT22;4307;53.868;11.680;2022-11-27T02:12:24;8.00;99.90
8539;DHT22;4307;53.868;11.680;2022-11-27T02:14:59;8.00;99.90
8539;DHT22;4307;53.868;11.680;2022-11-27T02:17:29;8.00;99.90
8539;DHT22;4307;53.868;11.680;2022-11-27T02:20:12;8.00;99.90
8539;DHT22;4307;53.868;11.680;2022-11-27T02:22:54;8.00;99.90
8539;DHT22;4307;53.868;11.680;2022-11-27T02:25:31;7.90;99.90
8539;DHT22;4307;53.868;11.680;2022-11-27T02:28:29;7.90;99.90
8539;DHT22;4307;53.868;11.680;2022-11-27T02:31:04;7.90;99.90
8539;DHT22;4307;53.868;11.680;2022-11-27T02:33:33;7.90;99.90
8539;DHT22;4307;53.868;11.680;2022-11-27T02:36:06;7.90;99.90
8539;DHT22;4307;53.868;11.680;2022-11-27T02:38:37;7.90;99.90
8539;DHT22;4307;53.868;11.680;2022-11-27T02:41:11;7.90;99.90
8539;DHT22;4307;53.868;11.680;2022-11-27T02:43:40;7.90;99.90
8539;DHT22;4307;53.868;11.680;2022-11-27T02:46:10;7.90;99.90
8539;DHT22;4307;53.868;11.680;2022-11-27T02:48:41;7.90;99.90
8539;DHT22;4307;53.868;11.680;2022-11-27T02:51:11;7.80;99.90
8539;DHT22;4307;53.868;11.680;2022-11-27T02:53:42;7.90;99.90
8539;DHT22;4307;53.868;11.680;2022-11-27T02:56:11;7.80;99.90
8539;DHT22;4307;53.868;11.680;2022-11-27T02:58:39;7.80;99.90
8539;DHT22;4307;53.868;11.680;2022-11-27T03:01:08;7.80;99.90
8539;DHT22;4307;53.868;11.680;2022-11-27T03:03:40;7.80;99.90
8539;DHT22;4307;53.868;11.680;2022-11-27T03:06:11;7.80;99.90
8539;DHT22;4307;53.868;11.680;2022-11-27T03:08:43;7.70;99.90
8539;DHT22;4307;53.868;11.680;2022-11-27T03:11:15;7.70;99.90
8539;DHT22;4307;53.868;11.680;2022-11-27T03:13:43;7.70;99.90
8539;DHT22;4307;53.868;11.680;2022-11-27T03:16:16;7.70;99.90
8539;DHT22;4307;53.868;11.680;2022-11-27T03:18:51;7.70;99.90
8539;DHT22;4307;53.868;11.680;2022-11-27T03:21:26;7.60;99.90
8539;DHT22;4307;53.868;11.680;2022-11-27T03:23:54;7.60;99.90
8539;DHT22;4307;53.868;11.680;2022-11-27T03:26:21;7.60;99.90
8539;DHT22;4307;53.868;11.680;2022-11-27T03:28:48;7.60;99.90
8539;DHT22;4307;53.868;11.680;2022-11-27T03:31:17;7.60;99.90
8539;DHT22;4307;53.868;11.680;2022-11-27T03:33:43;7.60;99.90
8539;DHT22;4307;53.868;11.680;2022-11-27T03:36:12;7.60;99.90
8539;DHT22;4307;53.868;11.680;2022-11-27T03:38:39;7.60;99.90
8539;DHT22;4307;53.868;11.680;2022-11-27T03:41:10;7.60;99.90
8539;DHT22;4307;53.868;11.680;2022-11-27T03:43:47;7.60;99.90
8539;DHT22;4307;53.868;11.680;2022-11-27T03:46:25;7.60;99.90
8539;DHT22;4307;53.868;11.680;2022-11-27T03:48:58;7.60;99.90
8539;DHT22;4307;53.868;11.680;2022-11-27T03:51:36;7.60;99.90
8539;DHT22;4307;53.868;11.680;2022-11-27T03:54:10;7.60;99.90
8539;DHT22;4307;53.868;11.680;2022-11-27T03:56:41;7.60;99.90
8539;DHT22;4307;53.868;11.680;2022-11-27T03:59:13;7.60;99.90
8539;DHT22;4307;53.868;11.680;2022-11-27T04:01:43;7.60;99.90
8539;DHT22;4307;53.868;11.680;2022-11-27T04:04:10;7.60;99.90
8539;DHT22;4307;53.868;11.680;2022-11-27T04:06:37;7.60;99.90
8539;DHT22;4307;53.868;11.680;2022-11-27T04:09:04;7.60;99.90
8539;DHT22;4307;53.868;11.680;2022-11-27T04:11:30;7.60;99.90
8539;DHT22;4307;53.868;11.680;2022-11-27T04:13:57;7.60;99.90
8539;DHT22;4307;53.868;11.680;2022-11-27T04:16:24;7.60;99.90
8539;DHT22;4307;53.868;11.680;2022-11-27T04:18:52;7.60;99.90
8539;DHT22;4307;53.868;11.680;2022-11-27T04:21:19;7.60;99.90
8539;DHT22;4307;53.868;11.680;2022-11-27T04:23:46;7.60;99.90
8539;DHT22;4307;53.868;11.680;2022-11-27T04:26:12;7.60;99.90
8539;DHT22;4307;53.868;11.680;2022-11-27T04:28:39;7.60;99.90
8539;DHT22;4307;53.868;11.680;2022-11-27T04:31:06;7.60;99.90
8539;DHT22;4307;53.868;11.680;2022-11-27T04:33:33;7.60;99.90
8539;DHT22;4307;53.868;11.680;2022-11-27T04:36:01;7.60;99.90
8539;DHT22;4307;53.868;11.680;2022-11-27T04:38:27;7.60;99.90
8539;DHT22;4307;53.868;11.680;2022-11-27T04:40:54;7.50;99.90
8539;DHT22;4307;53.868;11.680;2022-11-27T04:43:22;7.50;99.90
8539;DHT22;4307;53.868;11.680;2022-11-27T04:45:48;7.50;99.90
8539;DHT22;4307;53.868;11.680;2022-11-27T04:48:15;7.50;99.90
8539;DHT22;4307;53.868;11.680;2022-11-27T04:50:42;7.50;99.90
8539;DHT22;4307;53.868;11.680;2022-11-27T04:53:10;7.50;99.90
8539;DHT22;4307;53.868;11.680;2022-11-27T04:55:36;7.40;99.90
8539;DHT22;4307;53.868;11.680;2022-11-27T04:58:03;7.40;99.90
8539;DHT22;4307;53.868;11.680;2022-11-27T05:00:30;7.40;99.90
8539;DHT22;4307;53.868;11.680;2022-11-27T05:02:56;7.40;99.90
8539;DHT22;4307;53.868;11.680;2022-11-27T05:05:23;7.40;99.90
8539;DHT22;4307;53.868;11.680;2022-11-27T05:07:49;7.40;99.90
8539;DHT22;4307;53.868;11.680;2022-11-27T05:10:18;7.40;99.90
8539;DHT22;4307;53.868;11.680;2022-11-27T05:12:44;7.30;99.90
8539;DHT22;4307;53.868;11.680;2022-11-27T05:15:11;7.30;99.90
8539;DHT22;4307;53.868;11.680;2022-11-27T05:17:37;7.30;99.90
8539;DHT22;4307;53.868;11.680;2022-11-27T05:20:05;7.20;99.90
8539;DHT22;4307;53.868;11.680;2022-11-27T05:22:32;7.20;99.90
8539;DHT22;4307;53.868;11.680;2022-11-27T05:24:59;7.10;99.90
8539;DHT22;4307;53.868;11.680;2022-11-27T05:27:27;7.10;99.90
8539;DHT22;4307;53.868;11.680;2022-11-27T05:29:53;7.10;99.90
8539;DHT22;4307;53.868;11.680;2022-11-27T05:32:20;7.10;99.90
8539;DHT22;4307;53.868;11.680;2022-11-27T05:34:47;7.00;99.90
8539;DHT22;4307;53.868;11.680;2022-11-27T05:37:14;7.00;99.90
8539;DHT22;4307;53.868;11.680;2022-11-27T05:39:40;7.00;99.90
8539;DHT22;4307;53.868;11.680;2022-11-27T05:42:08;7.00;99.90
8539;DHT22;4307;53.868;11.680;2022-11-27T05:44:36;6.90;99.90
8539;DHT22;4307;53.868;11.680;2022-11-27T05:47:02;6.90;99.90
8539;DHT22;4307;53.868;11.680;2022-11-27T05:49:29;6.80;99.90
8539;DHT22;4307;53.868;11.680;2022-11-27T05:51:56;6.80;99.90
8539;DHT22;4307;53.868;11.680;2022-11-27T05:54:22;6.80;99.90
8539;DHT22;4307;53.868;11.680;2022-11-27T05:56:49;6.70;99.90
8539;DHT22;4307;53.868;11.680;2022-11-27T05:59:16;6.70;99.90
8539;DHT22;4307;53.868;11.680;2022-11-27T06:01:43;6.70;99.90
8539;DHT22;4307;53.868;11.680;2022-11-27T06:04:10;6.60;99.90
8539;DHT22;4307;53.868;11.680;2022-11-27T06:06:37;6.60;99.90
8539;DHT22;4307;53.868;11.680;2022-11-27T06:09:03;6.50;99.90
8539;DHT22;4307;53.868;11.680;2022-11-27T06:11:30;6.50;99.90
8539;DHT22;4307;53.868;11.680;2022-11-27T06:13:57;6.40;99.90
8539;DHT22;4307;53.868;11.680;2022-11-27T06:16:24;6.40;99.90
8539;DHT22;4307;53.868;11.680;2022-11-27T06:18:53;6.30;99.90
8539;DHT22;4307;53.868;11.680;2022-11-27T06:21:22;6.30;99.90
8539;DHT22;4307;53.868;11.680;2022-11-27T06:23:52;6.30;99.90
8539;DHT22;4307;53.868;11.680;2022-11-27T06:26:20;6.20;99.90
8539;DHT22;4307;53.868;11.680;2022-11-27T06:28:48;6.20;99.90
8539;DHT22;4307;53.868;11.680;2022-11-27T06:31:17;6.20;99.90
8539;DHT22;4307;53.868;11.680;2022-11-27T06:33:44;6.10;99.90
8539;DHT22;4307;53.868;11.680;2022-11-27T06:36:13;6.10;99.90
8539;DHT22;4307;53.868;11.680;2022-11-27T06:38:40;6.10;99.90
8539;DHT22;4307;53.868;11.680;2022-11-27T06:41:08;6.00;99.90
8539;DHT22;4307;53.868;11.680;2022-11-27T06:43:35;6.00;99.90
8539;DHT22;4307;53.868;11.680;2022-11-27T06:46:02;6.00;99.90
8539;DHT22;4307;53.868;11.680;2022-11-27T06:48:30;5.90;99.90
8539;DHT22;4307;53.868;11.680;2022-11-27T06:50:58;5.90;99.90
8539;DHT22;4307;53.868;11.680;2022-11-27T06:53:27;5.90;99.90
8539;DHT22;4307;53.868;11.680;2022-11-27T06:55:54;5.90;99.90
8539;DHT22;4307;53.868;11.680;2022-11-27T06:58:21;5.90;99.90
8539;DHT22;4307;53.868;11.680;2022-11-27T07:00:48;5.90;99.90
8539;DHT22;4307;53.868;11.680;2022-11-27T07:03:15;5.90;99.90
8539;DHT22;4307;53.868;11.680;2022-11-27T07:05:41;5.90;99.90
8539;DHT22;4307;53.868;11.680;2022-11-27T07:08:08;5.90;99.90
8539;DHT22;4307;53.868;11.680;2022-11-27T07:10:36;5.90;99.90
8539;DHT22;4307;53.868;11.680;2022-11-27T07:13:03;5.80;99.90
8539;DHT22;4307;53.868;11.680;2022-11-27T07:15:29;5.80;99.90
8539;DHT22;4307;53.868;11.680;2022-11-27T07:17:57;5.80;99.90
8539;DHT22;4307;53.868;11.680;2022-11-27T07:20:24;5.80;99.90
8539;DHT22;4307;53.868;11.680;2022-11-27T07:22:50;5.70;99.90
8539;DHT22;4307;53.868;11.680;2022-11-27T07:25:17;5.70;99.90
8539;DHT22;4307;53.868;11.680;2022-11-27T07:27:45;5.70;99.90
8539;DHT22;4307;53.868;11.680;2022-11-27T07:30:12;5.70;99.90
8539;DHT22;4307;53.868;11.680;2022-11-27T07:32:39;5.70;99.90
8539;DHT22;4307;53.868;11.680;2022-11-27T07:35:06;5.70;99.90
8539;DHT22;4307;53.868;11.680;2022-11-27T07:37:33;5.70;99.90
8539;DHT22;4307;53.868;11.680;2022-11-27T07:40:00;5.70;99.90
8539;DHT22;4307;53.868;11.680;2022-11-27T07:42:27;5.70;99.90
8539;DHT22;4307;53.868;11.680;2022-11-27T07:44:56;5.80;99.90
8539;DHT22;4307;53.868;11.680;2022-11-27T07:47:22;5.80;99.90
8539;DHT22;4307;53.868;11.680;2022-11-27T07:49:49;5.90;99.90
8539;DHT22;4307;53.868;11.680;2022-11-27T07:52:15;5.90;99.90
8539;DHT22;4307;53.868;11.680;2022-11-27T07:54:42;5.90;99.90
8539;DHT22;4307;53.868;11.680;2022-11-27T07:57:09;5.90;99.90
8539;DHT22;4307;53.868;11.680;2022-11-27T07:59:35;6.00;99.90
8539;DHT22;4307;53.868;11.680;2022-11-27T08:02:03;6.00;99.90
8539;DHT22;4307;53.868;11.680;2022-11-27T08:04:30;6.10;99.90
8539;DHT22;4307;53.868;11.680;2022-11-27T08:06:57;6.20;99.90
8539;DHT22;4307;53.868;11.680;2022-11-27T08:09:23;6.30;99.90
8539;DHT22;4307;53.868;11.680;2022-11-27T08:11:50;6.30;99.90
8539;DHT22;4307;53.868;11.680;2022-11-27T08:14:16;6.40;99.90
8539;DHT22;4307;53.868;11.680;2022-11-27T08:16:43;6.60;99.90
8539;DHT22;4307;53.868;11.680;2022-11-27T08:19:11;6.70;99.90
8539;DHT22;4307;53.868;11.680;2022-11-27T08:21:38;6.80;99.90
8539;DHT22;4307;53.868;11.680;2022-11-27T08:24:05;7.00;99.90
8539;DHT22;4307;53.868;11.680;2022-11-27T08:26:32;7.10;99.90
8539;DHT22;4307;53.868;11.680;2022-11-27T08:28:59;7.10;99.90
8539;DHT22;4307;53.868;11.680;2022-11-27T08:31:25;7.10;99.90
8539;DHT22;4307;53.868;11.680;2022-11-27T08:33:52;7.20;99.90
8539;DHT22;4307;53.868;11.680;2022-11-27T08:36:23;7.20;99.90
8539;DHT22;4307;53.868;11.680;2022-11-27T08:38:50;7.10;99.90
8539;DHT22;4307;53.868;11.680;2022-11-27T08:41:17;7.10;99.90
8539;DHT22;4307;53.868;11.680;2022-11-27T08:43:44;7.20;99.90
8539;DHT22;4307;53.868;11.680;2022-11-27T08:46:10;7.30;99.90
8539;DHT22;4307;53.868;11.680;2022-11-27T08:48:37;7.40;99.90
8539;DHT22;4307;53.868;11.680;2022-11-27T08:51:06;7.50;99.90
8539;DHT22;4307;53.868;11.680;2022-11-27T08:53:35;7.60;99.90
8539;DHT22;4307;53.868;11.680;2022-11-27T08:56:04;7.70;99.90
8539;DHT22;4307;53.868;11.680;2022-11-27T08:58:31;7.80;99.90
8539;DHT22;4307;53.868;11.680;2022-11-27T09:00:58;7.80;99.90
8539;DHT22;4307;53.868;11.680;2022-11-27T09:03:24;7.90;99.90
8539;DHT22;4307;53.868;11.680;2022-11-27T09:05:51;8.00;99.90
8539;DHT22;4307;53.868;11.680;2022-11-27T09:08:18;8.10;99.90
8539;DHT22;4307;53.868;11.680;2022-11-27T09:10:47;8.10;99.90
8539;DHT22;4307;53.868;11.680;2022-11-27T09:13:13;8.20;99.90
8539;DHT22;4307;53.868;11.680;2022-11-27T09:15:40;8.30;99.90
8539;DHT22;4307;53.868;11.680;2022-11-27T09:18:07;8.30;99.90
8539;DHT22;4307;53.868;11.680;2022-11-27T09:20:33;8.30;99.90
8539;DHT22;4307;53.868;11.680;2022-11-27T09:23:00;8.10;99.90
8539;DHT22;4307;53.868;11.680;2022-11-27T09:25:27;8.10;99.90
8539;DHT22;4307;53.868;11.680;2022-11-27T09:27:56;8.20;99.90
8539;DHT22;4307;53.868;11.680;2022-11-27T09:30:23;8.20;99.90
8539;DHT22;4307;53.868;11.680;2022-11-27T09:32:50;8.20;99.90
8539;DHT22;4307;53.868;11.680;2022-11-27T09:35:17;8.00;99.90
8539;DHT22;4307;53.868;11.680;2022-11-27T09:37:43;7.90;99.90
8539;DHT22;4307;53.868;11.680;2022-11-27T09:40:13;7.70;99.90
8539;DHT22;4307;53.868;11.680;2022-11-27T09:42:46;7.50;99.90
8539;DHT22;4307;53.868;11.680;2022-11-27T09:45:16;7.30;99.90
8539;DHT22;4307;53.868;11.680;2022-11-27T09:47:47;7.10;99.90
8539;DHT22;4307;53.868;11.680;2022-11-27T09:50:16;7.00;99.90
8539;DHT22;4307;53.868;11.680;2022-11-27T09:52:47;6.80;99.90
8539;DHT22;4307;53.868;11.680;2022-11-27T09:55:19;6.70;99.90
8539;DHT22;4307;53.868;11.680;2022-11-27T09:57:53;6.60;99.90
8539;DHT22;4307;53.868;11.680;2022-11-27T10:00:23;6.50;99.90
8539;DHT22;4307;53.868;11.680;2022-11-27T10:02:49;6.50;99.90
8539;DHT22;4307;53.868;11.680;2022-11-27T10:05:19;6.50;99.90
8539;DHT22;4307;53.868;11.680;2022-11-27T10:08:02;6.50;99.90
8539;DHT22;4307;53.868;11.680;2022-11-27T10:10:38;6.40;99.90
8539;DHT22;4307;53.868;11.680;2022-11-27T10:13:17;6.40;99.90
8539;DHT22;4307;53.868;11.680;2022-11-27T10:15:54;6.30;99.90
8539;DHT22;4307;53.868;11.680;2022-11-27T10:18:29;6.30;99.90
8539;DHT22;4307;53.868;11.680;2022-11-27T10:21:02;6.30;99.90
8539;DHT22;4307;53.868;11.680;2022-11-27T10:23:40;6.30;99.90
8539;DHT22;4307;53.868;11.680;2022-11-27T10:26:16;6.30;99.90
8539;DHT22;4307;53.868;11.680;2022-11-27T10:28:51;6.20;99.90
8539;DHT22;4307;53.868;11.680;2022-11-27T10:31:32;6.20;99.90
8539;DHT22;4307;53.868;11.680;2022-11-27T10:34:02;6.10;99.90
8539;DHT22;4307;53.868;11.680;2022-11-27T10:36:35;6.10;99.90
8539;DHT22;4307;53.868;11.680;2022-11-27T10:39:03;6.10;99.90
8539;DHT22;4307;53.868;11.680;2022-11-27T10:41:36;6.10;99.90
8539;DHT22;4307;53.868;11.680;2022-11-27T10:44:22;6.20;99.90
8539;DHT22;4307;53.868;11.680;2022-11-27T10:46:55;6.10;99.90
8539;DHT22;4307;53.868;11.680;2022-11-27T10:49:23;6.10;99.90
8539;DHT22;4307;53.868;11.680;2022-11-27T10:51:50;6.10;99.90
8539;DHT22;4307;53.868;11.680;2022-11-27T10:54:21;6.20;99.90
8539;DHT22;4307;53.868;11.680;2022-11-27T10:57:04;6.30;99.90
8539;DHT22;4307;53.868;11.680;2022-11-27T10:59:36;6.50;99.90
8539;DHT22;4307;53.868;11.680;2022-11-27T11:02:27;6.70;99.90
8539;DHT22;4307;53.868;11.680;2022-11-27T11:04:54;6.80;99.90
8539;DHT22;4307;53.868;11.680;2022-11-27T11:07:24;7.00;99.90
8539;DHT22;4307;53.868;11.680;2022-11-27T11:09:52;7.00;99.90
8539;DHT22;4307;53.868;11.680;2022-11-27T11:12:20;7.00;99.90
8539;DHT22;4307;53.868;11.680;2022-11-27T11:14:52;7.10;99.90
8539;DHT22;4307;53.868;11.680;2022-11-27T11:17:24;7.20;99.90
8539;DHT22;4307;53.868;11.680;2022-11-27T11:19:52;7.50;99.90
8539;DHT22;4307;53.868;11.680;2022-11-27T11:22:19;7.60;99.90
8539;DHT22;4307;53.868;11.680;2022-11-27T11:24:47;7.80;99.90
8539;DHT22;4307;53.868;11.680;2022-11-27T11:27:16;7.90;99.90
8539;DHT22;4307;53.868;11.680;2022-11-27T11:29:46;8.10;99.90
8539;DHT22;4307;53.868;11.680;2022-11-27T11:32:20;8.30;99.90
8539;DHT22;4307;53.868;11.680;2022-11-27T11:34:52;8.70;99.90
8539;DHT22;4307;53.868;11.680;2022-11-27T11:37:22;9.10;99.90
8539;DHT22;4307;53.868;11.680;2022-11-27T11:39:55;9.50;99.90
8539;DHT22;4307;53.868;11.680;2022-11-27T11:42:26;9.80;99.90
8539;DHT22;4307;53.868;11.680;2022-11-27T11:44:54;10.10;99.90
8539;DHT22;4307;53.868;11.680;2022-11-27T11:47:22;10.20;99.90
8539;DHT22;4307;53.868;11.680;2022-11-27T11:49:53;10.30;99.90
8539;DHT22;4307;53.868;11.680;2022-11-27T11:52:34;10.20;99.90
8539;DHT22;4307;53.868;11.680;2022-11-27T11:55:12;10.10;99.90
8539;DHT22;4307;53.868;11.680;2022-11-27T12:01:14;10.20;99.90
8539;DHT22;4307;53.868;11.680;2022-11-27T12:03:58;10.40;99.90
8539;DHT22;4307;53.868;11.680;2022-11-27T12:06:40;10.60;99.90
8539;DHT22;4307;53.868;11.680;2022-11-27T12:09:21;10.50;99.90
8539;DHT22;4307;53.868;11.680;2022-11-27T12:11:54;10.00;99.90
8539;DHT22;4307;53.868;11.680;2022-11-27T12:14:37;9.60;99.90
8539;DHT22;4307;53.868;11.680;2022-11-27T12:17:14;9.40;99.90
8539;DHT22;4307;53.868;11.680;2022-11-27T12:19:57;9.40;99.90
8539;DHT22;4307;53.868;11.680;2022-11-27T12:22:43;9.40;99.90
8539;DHT22;4307;53.868;11.680;2022-11-27T12:25:21;9.50;99.90
8539;DHT22;4307;53.868;11.680;2022-11-27T12:27:58;9.60;99.90
8539;DHT22;4307;53.868;11.680;2022-11-27T12:30:34;9.50;99.90
8539;DHT22;4307;53.868;11.680;2022-11-27T12:33:16;9.50;99.90
8539;DHT22;4307;53.868;11.680;2022-11-27T12:35:49;9.60;99.90
8539;DHT22;4307;53.868;11.680;2022-11-27T12:38:30;9.70;99.90
8539;DHT22;4307;53.868;11.680;2022-11-27T12:41:32;9.70;99.90
8539;DHT22;4307;53.868;11.680;2022-11-27T12:44:13;9.50;99.90
8539;DHT22;4307;53.868;11.680;2022-11-27T12:46:49;9.40;99.90
8539;DHT22;4307;53.868;11.680;2022-11-27T12:49:20;9.20;99.90
8539;DHT22;4307;53.868;11.680;2022-11-27T12:51:50;9.10;99.90
8539;DHT22;4307;53.868;11.680;2022-11-27T12:54:24;8.90;99.90
8539;DHT22;4307;53.868;11.680;2022-11-27T12:56:54;8.80;99.90
8539;DHT22;4307;53.868;11.680;2022-11-27T12:59:24;8.70;99.90
8539;DHT22;4307;53.868;11.680;2022-11-27T13:01:58;8.60;99.90
8539;DHT22;4307;53.868;11.680;2022-11-27T13:04:31;8.50;99.90
8539;DHT22;4307;53.868;11.680;2022-11-27T13:07:03;8.40;99.90
8539;DHT22;4307;53.868;11.680;2022-11-27T13:09:40;8.30;99.90
8539;DHT22;4307;53.868;11.680;2022-11-27T13:12:09;8.30;99.90
8539;DHT22;4307;53.868;11.680;2022-11-27T13:14:41;8.20;99.90
8539;DHT22;4307;53.868;11.680;2022-11-27T13:17:11;8.10;99.90
8539;DHT22;4307;53.868;11.680;2022-11-27T13:19:43;8.10;99.90
8539;DHT22;4307;53.868;11.680;2022-11-27T13:22:12;8.00;99.90
8539;DHT22;4307;53.868;11.680;2022-11-27T13:24:41;7.90;99.90
8539;DHT22;4307;53.868;11.680;2022-11-27T13:27:11;7.90;99.90
8539;DHT22;4307;53.868;11.680;2022-11-27T13:29:42;7.90;99.90
8539;DHT22;4307;53.868;11.680;2022-11-27T13:32:17;7.90;99.90
8539;DHT22;4307;53.868;11.680;2022-11-27T13:34:46;7.90;99.90
8539;DHT22;4307;53.868;11.680;2022-11-27T13:37:25;7.90;99.90
8539;DHT22;4307;53.868;11.680;2022-11-27T13:40:00;7.90;99.90
8539;DHT22;4307;53.868;11.680;2022-11-27T13:42:28;7.90;99.90
8539;DHT22;4307;53.868;11.680;2022-11-27T13:44:57;7.80;99.90
8539;DHT22;4307;53.868;11.680;2022-11-27T13:47:27;7.80;99.90
8539;DHT22;4307;53.868;11.680;2022-11-27T13:49:59;7.80;99.90
8539;DHT22;4307;53.868;11.680;2022-11-27T13:52:26;7.70;99.90
8539;DHT22;4307;53.868;11.680;2022-11-27T13:54:55;7.70;99.90
8539;DHT22;4307;53.868;11.680;2022-11-27T13:57:24;7.70;99.90
8539;DHT22;4307;53.868;11.680;2022-11-27T13:59:59;7.60;99.90
8539;DHT22;4307;53.868;11.680;2022-11-27T14:02:40;7.60;99.90
8539;DHT22;4307;53.868;11.680;2022-11-27T14:05:07;7.60;99.90
8539;DHT22;4307;53.868;11.680;2022-11-27T14:07:35;7.50;99.90
8539;DHT22;4307;53.868;11.680;2022-11-27T14:10:09;7.50;99.90
8539;DHT22;4307;53.868;11.680;2022-11-27T14:12:40;7.50;99.90
8539;DHT22;4307;53.868;11.680;2022-11-27T14:15:11;7.50;99.90
8539;DHT22;4307;53.868;11.680;2022-11-27T14:17:47;7.40;99.90
8539;DHT22;4307;53.868;11.680;2022-11-27T14:20:22;7.40;99.90
8539;DHT22;4307;53.868;11.680;2022-11-27T14:22:51;7.40;99.90
8539;DHT22;4307;53.868;11.680;2022-11-27T14:25:21;7.40;99.90
8539;DHT22;4307;53.868;11.680;2022-11-27T14:27:57;7.40;99.90
8539;DHT22;4307;53.868;11.680;2022-11-27T14:30:29;7.40;99.90
8539;DHT22;4307;53.868;11.680;2022-11-27T14:32:57;7.30;99.90
8539;DHT22;4307;53.868;11.680;2022-11-27T14:35:25;7.30;99.90
8539;DHT22;4307;53.868;11.680;2022-11-27T14:37:53;7.20;99.90
8539;DHT22;4307;53.868;11.680;2022-11-27T14:40:24;7.30;99.90
8539;DHT22;4307;53.868;11.680;2022-11-27T14:42:52;7.30;99.90
8539;DHT22;4307;53.868;11.680;2022-11-27T14:45:21;7.20;99.90
8539;DHT22;4307;53.868;11.680;2022-11-27T14:47:50;7.20;99.90
8539;DHT22;4307;53.868;11.680;2022-11-27T14:50:19;7.20;99.90
8539;DHT22;4307;53.868;11.680;2022-11-27T14:52:50;7.20;99.90
8539;DHT22;4307;53.868;11.680;2022-11-27T14:55:19;7.20;99.90
8539;DHT22;4307;53.868;11.680;2022-11-27T14:57:48;7.20;99.90
8539;DHT22;4307;53.868;11.680;2022-11-27T15:00:19;7.20;99.90
8539;DHT22;4307;53.868;11.680;2022-11-27T15:02:49;7.20;99.90
8539;DHT22;4307;53.868;11.680;2022-11-27T15:05:18;7.20;99.90
8539;DHT22;4307;53.868;11.680;2022-11-27T15:07:46;7.10;99.90
8539;DHT22;4307;53.868;11.680;2022-11-27T15:10:22;7.10;99.90
8539;DHT22;4307;53.868;11.680;2022-11-27T15:12:49;7.10;99.90
8539;DHT22;4307;53.868;11.680;2022-11-27T15:15:21;7.10;99.90
8539;DHT22;4307;53.868;11.680;2022-11-27T15:17:53;7.10;99.90
8539;DHT22;4307;53.868;11.680;2022-11-27T15:20:23;7.10;99.90
8539;DHT22;4307;53.868;11.680;2022-11-27T15:22:52;7.10;99.90
8539;DHT22;4307;53.868;11.680;2022-11-27T15:25:33;7.10;99.90
8539;DHT22;4307;53.868;11.680;2022-11-27T15:28:01;7.10;99.90
8539;DHT22;4307;53.868;11.680;2022-11-27T15:30:29;7.10;99.90
8539;DHT22;4307;53.868;11.680;2022-11-27T15:32:55;7.10;99.90
8539;DHT22;4307;53.868;11.680;2022-11-27T15:35:25;7.10;99.90
8539;DHT22;4307;53.868;11.680;2022-11-27T15:37:53;7.10;99.90
8539;DHT22;4307;53.868;11.680;2022-11-27T15:40:30;7.10;99.90
8539;DHT22;4307;53.868;11.680;2022-11-27T15:42:58;7.10;99.90
8539;DHT22;4307;53.868;11.680;2022-11-27T15:45:29;7.10;99.90
8539;DHT22;4307;53.868;11.680;2022-11-27T15:47:57;7.10;99.90
8539;DHT22;4307;53.868;11.680;2022-11-27T15:50:24;7.10;99.90
8539;DHT22;4307;53.868;11.680;2022-11-27T15:52:51;7.10;99.90
8539;DHT22;4307;53.868;11.680;2022-11-27T15:55:18;7.10;99.90
8539;DHT22;4307;53.868;11.680;2022-11-27T15:57:45;7.10;99.90
8539;DHT22;4307;53.868;11.680;2022-11-27T16:00:12;7.10;99.90
8539;DHT22;4307;53.868;11.680;2022-11-27T16:02:40;7.10;99.90
8539;DHT22;4307;53.868;11.680;2022-11-27T16:05:07;7.10;99.90
8539;DHT22;4307;53.868;11.680;2022-11-27T16:07:34;7.10;99.90
8539;DHT22;4307;53.868;11.680;2022-11-27T16:10:01;7.10;99.90
8539;DHT22;4307;53.868;11.680;2022-11-27T16:12:28;7.10;99.90
8539;DHT22;4307;53.868;11.680;2022-11-27T16:14:54;7.20;99.90
8539;DHT22;4307;53.868;11.680;2022-11-27T16:17:21;7.20;99.90
8539;DHT22;4307;53.868;11.680;2022-11-27T16:19:49;7.20;99.90
8539;DHT22;4307;53.868;11.680;2022-11-27T16:22:15;7.20;99.90